KTUS/TUS METAR and TAF weather

Enter ICAO airport designator
Station Type Date Time Source
KTUS METAR 2019/06/18 12:53 UTC NOAA

KTUS 181253Z 14008KT 10SM CLR 21/05 A2996 RMK AO2 SLP097 T02110050


Station Type Date Time Source
KTUS Decoded METAR 2019/06/18 12:53 UTC NOAA

TUCSON INTERNATIONAL AIRPORT , AZ, United States (KTUS) 32-08N 110-57W 786M
Jun 18, 2019 - 08:53 AM EDT / 2019.06.18 1253 UTC
Wind: from the SE (140 degrees) at 9 MPH (8 KT):0
Visibility: 10 mile(s):0
Sky conditions: clear
Temperature: 70.0 F (21.1 C)
Dew Point: 41.0 F (5.0 C)
Relative Humidity: 34%
Pressure (altimeter): 29.96 in. Hg (1014 hPa)
ob: KTUS 181253Z 14008KT 10SM CLR 21/05 A2996 RMK AO2 SLP097 T02110050
cycle: 13

Station Type Date Time Source
KTUS TAF 2019/06/18 12:39 UTC NOAA

TAF KTUS 181137Z 1812/1912 14007KT P6SM SKC
FM181700 19008KT P6SM SKC
FM182000 25011G18KT P6SM SKC
FM190300 24006KT P6SM SKC
FM190700 15006KT P6SM SKC

Example: see airport list